Time;durP1;ratioP1;P1;durP2;ratioP2;P2;SDS_P1;SDS_P2;PMS_P1;PMS_P2;Temp;Humidity;BMP_temperature;BMP_pressure;BME280_temperature;BME280_humidity;BME280_pressure;Samples;Min_cycle;Max_cycle;Signal;HPM_P1;HPM_P2
2022/09/28 00:01:56;;;;;;;16.57;12.43;;;9.10;99.90;;;;;;6181215;23;20479;-73
2022/09/28 00:04:22;;;;;;;17.13;13.27;;;9.00;99.90;;;;;;6179529;23;20008;-73
2022/09/28 00:06:48;;;;;;;16.27;13.93;;;11.40;99.90;;;;;;6177275;23;20005;-72
2022/09/28 00:09:15;;;;;;;17.33;13.00;;;8.90;99.90;;;;;;6179398;23;20012;-72
2022/09/28 00:11:42;;;;;;;15.67;12.67;;;8.80;99.90;;;;;;6179215;23;20629;-73
2022/09/28 00:14:08;;;;;;;17.53;14.70;;;8.80;99.90;;;;;;6178691;23;20076;-72
2022/09/28 00:16:39;;;;;;;19.10;14.30;;;8.70;99.90;;;;;;6179606;23;20009;-72
2022/09/28 00:19:05;;;;;;;16.07;13.77;;;8.60;99.90;;;;;;6178526;23;20008;-73
2022/09/28 00:21:34;;;;;;;16.13;13.93;;;8.50;99.90;;;;;;6181636;23;20347;-72
2022/09/28 00:24:17;;;;;;;16.30;13.77;;;8.40;99.90;;;;;;6180947;23;20414;-72
2022/09/28 00:26:51;;;;;;;14.52;13.00;;;8.40;99.90;;;;;;6181541;23;20001;-73
2022/09/28 00:29:25;;;;;;;17.33;13.02;;;8.30;99.90;;;;;;6181429;23;20028;-72
2022/09/28 00:31:55;;;;;;;15.03;13.43;;;8.30;99.90;;;;;;6180588;23;20068;-73
2022/09/28 00:34:21;;;;;;;15.50;13.83;;;8.20;99.90;;;;;;6180890;23;20099;-72
2022/09/28 00:36:47;;;;;;;14.03;12.53;;;8.00;99.90;;;;;;6181385;23;20439;-72
2022/09/28 00:39:15;;;;;;;17.33;13.50;;;8.10;99.90;;;;;;6181332;23;20127;-72
2022/09/28 00:41:41;;;;;;;17.80;14.50;;;8.10;99.90;;;;;;6181212;23;20591;-72
2022/09/28 00:44:21;;;;;;;17.20;13.77;;;8.00;99.90;;;;;;6180979;23;20072;-72
2022/09/28 00:46:53;;;;;;;20.10;14.50;;;8.00;99.90;;;;;;6180981;23;20005;-72
2022/09/28 00:49:26;;;;;;;17.43;13.00;;;8.00;99.90;;;;;;6182029;23;20647;-73
2022/09/28 00:51:51;;;;;;;21.80;14.60;;;8.10;99.90;;;;;;6181065;23;20001;-72
2022/09/28 00:54:17;;;;;;;23.60;16.07;;;8.10;99.90;;;;;;6180104;23;20507;-72
2022/09/28 00:56:46;;;;;;;17.87;14.57;;;8.20;99.90;;;;;;6181653;23;20344;-72
2022/09/28 00:59:13;;;;;;;17.70;14.53;;;8.20;99.90;;;;;;6179956;23;20031;-73
2022/09/28 01:01:38;;;;;;;16.13;13.37;;;9.10;99.90;;;;;;6180635;23;20002;-72
2022/09/28 01:04:05;;;;;;;20.63;15.00;;;8.20;99.90;;;;;;6181264;23;20116;-73
2022/09/28 01:06:34;;;;;;;21.00;13.57;;;8.30;99.90;;;;;;6181989;23;20330;-73
2022/09/28 01:09:03;;;;;;;16.67;13.93;;;8.40;99.90;;;;;;6183121;23;20445;-73
2022/09/28 01:11:31;;;;;;;22.03;16.50;;;8.40;99.90;;;;;;6183621;23;20056;-73
2022/09/28 01:13:58;;;;;;;24.10;15.20;;;8.40;99.90;;;;;;6183059;23;20009;-72
2022/09/28 01:16:40;;;;;;;22.67;16.30;;;8.50;99.90;;;;;;6182862;23;20059;-73
2022/09/28 01:19:36;;;;;;;23.97;15.87;;;8.40;99.90;;;;;;6181608;23;20633;-72
2022/09/28 01:22:20;;;;;;;21.97;14.73;;;8.40;99.90;;;;;;6183162;23;20024;-73
2022/09/28 01:24:47;;;;;;;;;;;8.30;99.90;;;;;;6183895;23;20005;-72
2022/09/28 01:27:27;;;;;;;19.37;13.20;;;8.20;99.90;;;;;;6183368;23;19975;-73
2022/09/28 01:30:13;;;;;;;19.83;15.40;;;8.10;99.90;;;;;;6182345;23;20492;-72
2022/09/28 01:32:56;;;;;;;22.40;16.00;;;8.10;99.90;;;;;;6182359;23;20001;-72
2022/09/28 01:35:27;;;;;;;24.80;16.40;;;8.00;99.90;;;;;;6183356;23;20063;-72
2022/09/28 01:38:03;;;;;;;19.17;15.93;;;8.00;99.90;;;;;;6182730;23;20264;-72
2022/09/28 01:40:31;;;;;;;20.03;16.37;;;8.20;99.90;;;;;;6182229;23;20495;-72
2022/09/28 01:43:06;;;;;;;20.93;16.03;;;7.80;99.90;;;;;;6181484;23;20192;-72
2022/09/28 01:45:45;;;;;;;21.47;15.93;;;7.90;99.90;;;;;;6182730;23;19997;-72
2022/09/28 01:48:15;;;;;;;23.73;16.37;;;7.60;99.90;;;;;;6182973;23;20402;-72
2022/09/28 01:50:43;;;;;;;20.10;15.20;;;7.60;99.90;;;;;;6182475;23;20059;-73
2022/09/28 01:53:17;;;;;;;20.87;15.10;;;7.70;99.90;;;;;;6182802;23;20021;-73
2022/09/28 01:55:54;;;;;;;22.30;17.50;;;7.60;99.90;;;;;;6182761;23;20009;-72
2022/09/28 01:58:41;;;;;;;23.90;17.43;;;7.60;99.90;;;;;;6182828;23;20032;-72
2022/09/28 02:01:21;;;;;;;25.80;18.57;;;7.60;99.90;;;;;;6182160;23;20008;-73
2022/09/28 02:04:03;;;;;;;21.70;17.20;;;7.60;99.90;;;;;;6182860;23;20005;-73
2022/09/28 02:06:37;;;;;;;20.50;17.23;;;7.70;99.90;;;;;;6182800;23;20005;-73
2022/09/28 02:09:09;;;;;;;21.37;18.13;;;7.70;99.90;;;;;;6182772;23;20009;-73
2022/09/28 02:11:37;;;;;;;23.10;17.47;;;7.70;99.90;;;;;;6182394;23;20087;-72
2022/09/28 02:14:12;;;;;;;23.77;17.57;;;7.80;99.90;;;;;;6182206;23;20005;-72
2022/09/28 02:16:43;;;;;;;27.40;18.13;;;7.90;99.90;;;;;;6182574;23;19997;-73
2022/09/28 02:19:14;;;;;;;20.57;16.03;;;7.80;99.90;;;;;;6182515;23;20491;-72
2022/09/28 02:22:01;;;;;;;23.53;16.60;;;7.90;99.90;;;;;;6182319;23;20005;-73
2022/09/28 02:24:53;;;;;;;17.73;14.73;;;7.80;99.90;;;;;;6182841;23;20005;-72
2022/09/28 02:27:37;;;;;;;22.73;17.37;;;7.90;99.90;;;;;;6182357;23;20001;-73
2022/09/28 02:30:03;;;;;;;23.27;17.67;;;7.90;99.90;;;;;;6181433;23;20044;-73
2022/09/28 02:32:32;;;;;;;24.57;17.07;;;8.00;99.90;;;;;;6181048;23;20085;-73
2022/09/28 02:34:58;;;;;;;21.10;16.63;;;8.00;99.90;;;;;;6180863;23;20064;-72
2022/09/28 02:37:25;;;;;;;24.47;16.67;;;8.00;99.90;;;;;;6181130;23;20008;-73
2022/09/28 02:39:51;;;;;;;19.93;17.47;;;8.00;99.90;;;;;;6180722;23;20015;-73
2022/09/28 02:42:24;;;;;;;23.27;17.13;;;8.10;99.90;;;;;;6180759;23;20382;-72
2022/09/28 02:45:14;;;;;;;24.70;18.00;;;8.10;99.90;;;;;;6180942;23;20656;-72
2022/09/28 02:48:12;;;;;;;23.27;16.70;;;8.10;99.90;;;;;;6180772;23;20106;-72
2022/09/28 02:51:07;;;;;;;20.83;17.03;;;8.10;99.90;;;;;;6179884;23;20431;-73
2022/09/28 02:54:04;;;;;;;20.87;15.60;;;8.20;99.90;;;;;;6180959;23;19997;-73
2022/09/28 02:57:04;;;;;;;24.73;15.63;;;8.30;99.90;;;;;;6180395;23;20115;-73
2022/09/28 02:59:54;;;;;;;24.97;15.50;;;8.30;99.90;;;;;;6180267;23;20005;-72
2022/09/28 03:02:29;;;;;;;19.97;15.73;;;8.30;99.90;;;;;;6180728;23;20004;-72
2022/09/28 03:05:17;;;;;;;19.70;15.47;;;8.30;99.90;;;;;;6180629;23;20372;-72
2022/09/28 03:07:59;;;;;;;19.43;15.63;;;8.40;99.90;;;;;;6179917;23;20009;-73
2022/09/28 03:10:46;;;;;;;19.73;15.53;;;8.50;99.90;;;;;;6180625;23;20530;-72
2022/09/28 03:13:13;;;;;;;19.33;15.50;;;8.50;99.90;;;;;;6180221;23;20005;-72
2022/09/28 03:15:40;;;;;;;17.70;15.03;;;8.50;99.90;;;;;;6180303;23;20077;-73
2022/09/28 03:18:06;;;;;;;20.67;16.40;;;8.50;99.90;;;;;;6180203;23;20011;-72
2022/09/28 03:20:32;;;;;;;20.13;16.40;;;8.40;99.90;;;;;;6180288;23;20075;-72
2022/09/28 03:22:58;;;;;;;22.07;16.13;;;8.50;99.90;;;;;;6180102;23;20055;-72
2022/09/28 03:25:23;;;;;;;23.43;17.80;;;8.50;99.90;;;;;;6179611;23;20004;-73
2022/09/28 03:27:49;;;;;;;20.90;16.03;;;8.50;99.90;;;;;;6180643;23;20140;-73
2022/09/28 03:30:15;;;;;;;24.37;16.57;;;8.50;99.90;;;;;;6135617;23;1069183;-73
2022/09/28 03:32:48;;;;;;;23.13;15.63;;;8.60;99.90;;;;;;6181895;23;20005;-72
2022/09/28 03:35:14;;;;;;;17.25;14.48;;;8.60;99.90;;;;;;6182201;23;20001;-73
2022/09/28 03:37:39;;;;;;;18.67;14.80;;;8.60;99.90;;;;;;6181875;23;20010;-73
2022/09/28 03:40:05;;;;;;;18.67;14.37;;;8.60;99.90;;;;;;6181290;23;20008;-73
2022/09/28 03:42:31;;;;;;;23.93;14.30;;;8.70;99.90;;;;;;6182279;23;20012;-73
2022/09/28 03:44:56;;;;;;;16.90;13.43;;;8.70;99.90;;;;;;6181688;23;20016;-73
2022/09/28 03:47:22;;;;;;;20.23;15.00;;;8.70;99.90;;;;;;6181822;23;20005;-73
2022/09/28 03:49:47;;;;;;;20.23;13.97;;;8.80;99.90;;;;;;6181944;23;20009;-73
2022/09/28 03:52:14;;;;;;;18.87;15.20;;;8.70;99.90;;;;;;6181975;23;20352;-73
2022/09/28 03:54:39;;;;;;;18.40;13.93;;;8.80;99.90;;;;;;6179676;23;20001;-72
2022/09/28 03:57:05;;;;;;;15.43;11.97;;;8.80;99.90;;;;;;6181863;23;20007;-73
2022/09/28 03:59:31;;;;;;;14.13;12.63;;;8.80;99.90;;;;;;6181923;23;20005;-72
2022/09/28 04:01:56;;;;;;;18.10;13.70;;;8.80;99.90;;;;;;6181554;23;20012;-73
2022/09/28 04:04:22;;;;;;;17.20;12.53;;;8.80;99.90;;;;;;6181825;23;20005;-73
2022/09/28 04:06:47;;;;;;;15.53;12.30;;;8.80;99.90;;;;;;6181592;23;20009;-73
2022/09/28 04:09:13;;;;;;;15.13;11.90;;;8.80;99.90;;;;;;6179572;23;20089;-73
2022/09/28 04:11:38;;;;;;;14.27;11.27;;;8.80;99.90;;;;;;6181537;23;19997;-73
2022/09/28 04:14:04;;;;;;;13.00;10.70;;;8.70;99.90;;;;;;6181598;23;20076;-73
2022/09/28 04:16:30;;;;;;;14.07;11.47;;;8.80;99.90;;;;;;6181719;23;20025;-73
2022/09/28 04:18:57;;;;;;;12.90;10.87;;;8.90;99.90;;;;;;6181510;23;20001;-73
2022/09/28 04:21:22;;;;;;;12.17;10.30;;;9.40;99.90;;;;;;6181743;23;20016;-73
2022/09/28 04:23:48;;;;;;;12.83;10.70;;;8.60;99.90;;;;;;6181139;23;20005;-73
2022/09/28 04:26:19;;;;;;;15.47;9.80;;;8.60;99.90;;;;;;6181485;23;20005;-73
2022/09/28 04:31:35;;;;;;;12.43;9.90;;;8.50;99.90;;;;;;6181702;23;20012;-73
2022/09/28 04:34:01;;;;;;;12.33;9.50;;;8.50;99.90;;;;;;6181398;23;20420;-72
2022/09/28 04:36:26;;;;;;;10.50;8.13;;;8.40;99.90;;;;;;6181035;23;20004;-72
2022/09/28 04:38:52;;;;;;;10.67;8.50;;;10.20;99.90;;;;;;6180906;23;20550;-72
2022/09/28 04:41:18;;;;;;;12.20;9.47;;;8.20;99.90;;;;;;6181670;23;20424;-73
2022/09/28 04:43:46;;;;;;;11.40;9.37;;;8.10;99.90;;;;;;6181453;23;19997;-73
2022/09/28 04:46:11;;;;;;;16.40;9.53;;;8.00;99.90;;;;;;6181482;23;20012;-72
2022/09/28 04:48:37;;;;;;;12.07;9.43;;;8.00;99.90;;;;;;6181213;23;20084;-74
2022/09/28 04:51:03;;;;;;;11.73;9.67;;;7.90;99.90;;;;;;6181705;23;20001;-72
2022/09/28 04:53:29;;;;;;;11.40;9.20;;;8.50;99.90;;;;;;6179270;23;20458;-73
2022/09/28 04:56:00;;;;;;;10.80;8.73;;;7.80;99.90;;;;;;6181035;23;20001;-73
2022/09/28 04:58:26;;;;;;;10.70;9.60;;;7.80;99.90;;;;;;6181510;23;20016;-72
2022/09/28 05:00:55;;;;;;;12.23;9.30;;;7.70;99.90;;;;;;6181196;23;20001;-72
2022/09/28 05:03:21;;;;;;;13.50;9.03;;;7.70;99.90;;;;;;6181408;23;20068;-72
2022/09/28 05:05:47;;;;;;;15.77;9.43;;;8.60;99.90;;;;;;6181329;23;20028;-72
2022/09/28 05:08:13;;;;;;;12.30;9.53;;;7.50;99.90;;;;;;6179052;23;20100;-72
2022/09/28 05:10:42;;;;;;;12.63;9.50;;;7.50;99.90;;;;;;6181264;23;20414;-73
2022/09/28 05:13:09;;;;;;;10.80;9.60;;;7.40;99.90;;;;;;6181429;23;20131;-72
2022/09/28 05:15:36;;;;;;;11.60;10.33;;;7.40;99.90;;;;;;6181178;23;20002;-72
2022/09/28 05:18:02;;;;;;;12.33;9.00;;;7.40;99.90;;;;;;6181244;23;20099;-72
2022/09/28 05:20:28;;;;;;;13.07;10.67;;;7.30;99.90;;;;;;6181119;23;20056;-73
2022/09/28 05:22:53;;;;;;;12.60;9.63;;;7.30;99.90;;;;;;6180360;23;20419;-72
2022/09/28 05:25:19;;;;;;;14.37;10.33;;;7.30;99.90;;;;;;6181441;23;20493;-72
2022/09/28 05:27:44;;;;;;;14.67;9.80;;;7.40;99.90;;;;;;6180978;23;20005;-72
2022/09/28 05:30:10;;;;;;;11.77;9.77;;;7.20;99.90;;;;;;6181011;23;20028;-72
2022/09/28 05:32:46;;;;;;;12.53;10.13;;;7.30;99.90;;;;;;6181828;23;20060;-72
2022/09/28 05:35:11;;;;;;;11.13;9.70;;;7.20;99.90;;;;;;6181550;23;20442;-72
2022/09/28 05:37:37;;;;;;;10.73;9.37;;;7.20;99.90;;;;;;6179059;23;20001;-73
2022/09/28 05:40:04;;;;;;;11.90;10.30;;;7.10;99.90;;;;;;6181622;23;19997;-73
2022/09/28 05:42:30;;;;;;;12.23;10.83;;;7.10;99.90;;;;;;6181935;23;20001;-73
2022/09/28 05:44:57;;;;;;;13.00;9.30;;;7.10;99.90;;;;;;6180822;23;20080;-73
2022/09/28 05:47:24;;;;;;;12.80;9.63;;;7.00;99.90;;;;;;6181371;23;20001;-72
2022/09/28 05:49:50;;;;;;;16.23;10.90;;;7.00;99.90;;;;;;6181319;23;20004;-73
2022/09/28 05:52:16;;;;;;;11.00;9.50;;;7.00;99.90;;;;;;6181457;23;20001;-73
2022/09/28 05:54:42;;;;;;;13.47;9.97;;;7.00;99.90;;;;;;6183497;23;20300;-72
2022/09/28 05:57:08;;;;;;;13.43;9.97;;;7.00;99.90;;;;;;6183527;23;20004;-72
2022/09/28 05:59:36;;;;;;;12.57;9.90;;;7.00;99.90;;;;;;6183432;23;20005;-72
2022/09/28 06:02:03;;;;;;;13.57;10.37;;;5.40;99.90;;;;;;6181640;23;20335;-72
2022/09/28 06:04:28;;;;;;;12.23;9.70;;;6.90;99.90;;;;;;6183365;23;20001;-72
2022/09/28 06:06:54;;;;;;;12.37;9.73;;;7.00;99.90;;;;;;6182368;23;20005;-72
2022/09/28 06:09:22;;;;;;;10.77;8.83;;;6.90;99.90;;;;;;6183433;23;20494;-72
2022/09/28 06:11:48;;;;;;;12.03;9.07;;;6.90;99.90;;;;;;6183248;23;20005;-73
2022/09/28 06:14:14;;;;;;;10.77;9.23;;;6.90;99.90;;;;;;6183204;23;20521;-72
2022/09/28 06:16:39;;;;;;;11.10;8.07;;;6.80;99.90;;;;;;6183187;23;20367;-73
2022/09/28 06:19:06;;;;;;;11.13;7.57;;;7.00;99.90;;;;;;6183056;23;20009;-72
2022/09/28 06:21:32;;;;;;;11.47;7.73;;;7.00;99.90;;;;;;6182590;23;20008;-72
2022/09/28 06:23:57;;;;;;;9.50;7.20;;;7.00;99.90;;;;;;6182790;23;20067;-72
2022/09/28 06:26:23;;;;;;;10.93;7.13;;;7.00;99.90;;;;;;6183043;23;20044;-72
2022/09/28 06:28:48;;;;;;;11.10;8.90;;;7.00;99.90;;;;;;6182850;23;20016;-74
2022/09/28 06:31:14;;;;;;;7.67;6.37;;;7.00;99.90;;;;;;6181342;23;20009;-73
2022/09/28 06:33:41;;;;;;;8.20;7.37;;;7.10;99.90;;;;;;6181191;23;20678;-74
2022/09/28 06:36:08;;;;;;;10.13;7.70;;;7.00;99.90;;;;;;6182446;23;19997;-74
2022/09/28 06:38:34;;;;;;;9.50;7.90;;;7.10;99.90;;;;;;6182918;23;19997;-74
2022/09/28 06:40:59;;;;;;;9.73;8.43;;;7.10;99.90;;;;;;6182801;23;20056;-74
2022/09/28 06:43:26;;;;;;;12.57;7.60;;;7.20;99.90;;;;;;6182916;23;20005;-73
2022/09/28 06:45:52;;;;;;;11.70;6.83;;;7.30;99.90;;;;;;6182929;23;20028;-74
2022/09/28 06:48:19;;;;;;;9.13;7.50;;;7.30;99.90;;;;;;6182776;23;20439;-75
2022/09/28 06:50:45;;;;;;;7.67;6.87;;;7.20;99.90;;;;;;6182713;23;20087;-73
2022/09/28 06:53:12;;;;;;;7.80;7.07;;;7.30;99.90;;;;;;6182849;23;20012;-73
2022/09/28 06:55:40;;;;;;;9.47;8.07;;;7.40;99.90;;;;;;6182714;23;20160;-73
2022/09/28 06:58:09;;;;;;;8.53;7.63;;;7.30;99.90;;;;;;6182868;23;20005;-73
2022/09/28 07:00:36;;;;;;;9.53;7.77;;;7.70;99.90;;;;;;6180529;23;20015;-73
2022/09/28 07:03:07;;;;;;;8.80;7.87;;;7.40;99.90;;;;;;6182054;23;19997;-73
2022/09/28 07:05:35;;;;;;;11.67;7.73;;;7.50;99.90;;;;;;6181812;23;20031;-73
2022/09/28 07:08:02;;;;;;;9.53;7.40;;;7.40;99.90;;;;;;6179930;23;20009;-77
2022/09/28 07:10:29;;;;;;;8.67;7.77;;;7.70;99.90;;;;;;6179681;23;20079;-78
2022/09/28 07:12:56;;;;;;;11.20;7.83;;;7.50;99.90;;;;;;6181808;23;20008;-80
2022/09/28 07:15:22;;;;;;;7.93;6.70;;;;;;;;;;6181974;23;20059;-78
2022/09/28 07:17:48;;;;;;;9.53;6.97;;;7.70;99.90;;;;;;6181061;23;20009;-79
2022/09/28 07:20:14;;;;;;;9.33;7.20;;;7.70;99.90;;;;;;6181603;23;20096;-80
2022/09/28 07:22:39;;;;;;;7.70;6.77;;;8.20;99.90;;;;;;6181712;23;20011;-81
2022/09/28 07:25:06;;;;;;;6.40;5.53;;;7.90;99.90;;;;;;6181833;23;20041;-79
2022/09/28 07:27:32;;;;;;;8.50;6.73;;;7.90;99.90;;;;;;6181895;23;20419;-79
2022/09/28 07:29:58;;;;;;;5.83;5.10;;;8.00;99.90;;;;;;6181434;23;20024;-80
2022/09/28 07:32:24;;;;;;;6.33;5.57;;;7.90;99.90;;;;;;6181351;23;20005;-80
2022/09/28 07:34:49;;;;;;;6.53;5.27;;;8.10;99.90;;;;;;6181686;23;20005;-79
2022/09/28 07:37:17;;;;;;;8.20;6.00;;;8.10;99.90;;;;;;6180265;23;20005;-80
2022/09/28 07:42:28;;;;;;;7.00;6.00;;;8.30;99.90;;;;;;6182018;23;20056;-80
2022/09/28 07:44:55;;;;;;;6.67;5.97;;;8.40;99.90;;;;;;6179174;23;20084;-81
2022/09/28 07:47:25;;;;;;;6.83;5.97;;;8.40;99.90;;;;;;6181017;23;20008;-79
2022/09/28 07:49:55;;;;;;;7.43;5.50;;;8.50;99.90;;;;;;6181259;23;20005;-79
2022/09/28 07:52:25;;;;;;;6.70;4.53;;;8.60;99.90;;;;;;6181767;23;20001;-79
2022/09/28 07:54:54;;;;;;;4.47;3.30;;;8.60;99.90;;;;;;6181746;23;20277;-79
2022/09/28 07:57:21;;;;;;;6.87;3.77;;;8.70;99.90;;;;;;6182142;23;20072;-79
2022/09/28 07:59:48;;;;;;;4.10;3.17;;;8.90;99.90;;;;;;6182136;23;20004;-80
2022/09/28 08:02:16;;;;;;;4.33;3.87;;;8.90;99.90;;;;;;6181916;23;20265;-80
2022/09/28 08:04:42;;;;;;;4.43;2.60;;;8.90;99.90;;;;;;6180149;23;20012;-79
2022/09/28 08:07:09;;;;;;;5.33;2.67;;;9.10;99.90;;;;;;6181526;23;20001;-78
2022/09/28 08:09:35;;;;;;;3.60;2.63;;;9.20;99.90;;;;;;6179969;23;20347;-78
2022/09/28 08:12:00;;;;;;;5.57;2.20;;;9.20;99.90;;;;;;6181358;23;20001;-78
2022/09/28 08:14:27;;;;;;;5.40;2.60;;;9.30;99.90;;;;;;6181716;23;20064;-78
2022/09/28 08:16:52;;;;;;;2.97;2.20;;;9.30;99.90;;;;;;6178917;23;20009;-78
2022/09/28 08:19:18;;;;;;;6.70;2.77;;;10.60;99.90;;;;;;6181814;23;20419;-78
2022/09/28 08:21:43;;;;;;;5.43;3.20;;;9.50;99.90;;;;;;6181444;23;20384;-77
2022/09/28 08:24:09;;;;;;;5.07;2.70;;;9.60;99.90;;;;;;6181346;23;20109;-78
2022/09/28 08:26:35;;;;;;;5.33;2.57;;;9.60;99.90;;;;;;6181490;23;20039;-78
2022/09/28 08:29:00;;;;;;;5.10;3.17;;;9.70;99.90;;;;;;6180936;23;20087;-77
2022/09/28 08:31:26;;;;;;;3.50;1.90;;;9.80;99.90;;;;;;6179289;23;20441;-78
2022/09/28 08:33:53;;;;;;;8.00;2.80;;;9.90;99.90;;;;;;6181301;23;20060;-77
2022/09/28 08:36:19;;;;;;;3.93;2.63;;;9.80;99.90;;;;;;6180077;23;20052;-78
2022/09/28 08:38:45;;;;;;;4.97;2.53;;;9.90;99.90;;;;;;6181139;23;20071;-78
2022/09/28 08:41:25;;;;;;;7.87;2.70;;;9.90;99.90;;;;;;6181605;23;20012;-78
2022/09/28 08:43:51;;;;;;;5.80;2.77;;;10.00;99.90;;;;;;6181451;23;20063;-79
2022/09/28 08:46:20;;;;;;;7.43;3.47;;;10.10;99.90;;;;;;6180795;23;20072;-78
2022/09/28 08:48:58;;;;;;;3.90;3.50;;;10.10;99.90;;;;;;6179634;23;20343;-78
2022/09/28 08:51:32;;;;;;;6.53;3.53;;;10.20;99.90;;;;;;6181395;23;20376;-78
2022/09/28 08:54:04;;;;;;;;;;;10.20;99.90;;;;;;6178410;23;19997;-78
2022/09/28 08:56:38;;;;;;;5.43;2.80;;;10.30;99.90;;;;;;6178802;23;19900;-78
2022/09/28 08:59:10;;;;;;;6.40;2.90;;;11.00;99.90;;;;;;6178987;23;20431;-78
2022/09/28 09:01:41;;;;;;;3.93;2.63;;;10.50;99.90;;;;;;6181179;23;20009;-78
2022/09/28 09:04:07;;;;;;;4.03;2.50;;;10.50;99.90;;;;;;6181379;23;20001;-79
2022/09/28 09:06:50;;;;;;;4.43;2.43;;;10.60;99.90;;;;;;6179893;23;20009;-79
2022/09/28 09:09:47;;;;;;;3.33;2.10;;;10.60;99.90;;;;;;6179413;23;20005;-78
2022/09/28 09:12:23;;;;;;;4.73;3.03;;;10.70;99.90;;;;;;6180953;23;20001;-78
2022/09/28 09:15:10;;;;;;;2.30;1.67;;;10.70;99.90;;;;;;6177494;23;20029;-79
2022/09/28 09:18:00;;;;;;;7.83;1.57;;;10.90;99.90;;;;;;6179009;23;20040;-78
2022/09/28 09:20:44;;;;;;;5.50;1.70;;;10.90;99.90;;;;;;6179585;23;20069;-78
2022/09/28 09:23:19;;;;;;;6.03;2.25;;;11.00;99.90;;;;;;6180363;23;20331;-78
2022/09/28 09:25:49;;;;;;;2.47;1.03;;;10.90;99.90;;;;;;6179415;23;20056;-79
2022/09/28 09:28:21;;;;;;;2.35;1.50;;;11.10;99.90;;;;;;6181269;23;20016;-78
2022/09/28 09:31:07;;;;;;;5.10;1.38;;;11.30;99.90;;;;;;6181295;23;20017;-78
2022/09/28 09:34:16;;;;;;;2.75;1.25;;;11.60;99.90;;;;;;6182934;23;20012;-78
2022/09/28 09:37:03;;;;;;;1.55;0.77;;;11.50;99.90;;;;;;6180976;23;20009;-78
2022/09/28 09:40:14;;;;;;;4.03;1.10;;;11.60;99.90;;;;;;6182981;23;20005;-78
2022/09/28 09:43:04;;;;;;;3.20;0.73;;;11.60;99.90;;;;;;6182384;23;20001;-78
2022/09/28 09:45:35;;;;;;;2.20;0.85;;;11.60;99.90;;;;;;6182956;23;20197;-78
2022/09/28 09:48:07;;;;;;;2.63;1.20;;;11.50;99.90;;;;;;6182639;23;20435;-78
2022/09/28 09:50:39;;;;;;;1.02;0.70;;;11.80;99.90;;;;;;6182638;23;19997;-78
2022/09/28 09:53:16;;;;;;;2.53;1.13;;;11.90;99.90;;;;;;6183057;23;20004;-78
2022/09/28 09:55:45;;;;;;;1.00;0.60;;;11.90;99.90;;;;;;6182647;23;20036;-77
2022/09/28 09:58:21;;;;;;;2.75;0.70;;;12.40;99.90;;;;;;6182045;23;20016;-78
2022/09/28 10:00:50;;;;;;;1.75;0.60;;;13.00;99.90;;;;;;6183174;23;20009;-78
2022/09/28 10:03:25;;;;;;;2.53;1.15;;;12.30;99.90;;;;;;6183152;23;20041;-79
2022/09/28 10:06:19;;;;;;;0.63;0.40;;;12.30;99.90;;;;;;6181337;23;19997;-78
2022/09/28 10:08:55;;;;;;;0.95;0.35;;;12.40;99.90;;;;;;6181812;23;20002;-78
2022/09/28 10:11:27;;;;;;;0.77;0.40;;;12.60;99.90;;;;;;6181950;23;20305;-78
2022/09/28 10:13:54;;;;;;;2.72;0.32;;;;;;;;;;6183098;23;19997;-78
2022/09/28 10:16:19;;;;;;;1.40;0.30;;;12.80;99.90;;;;;;6183006;23;20001;-78
2022/09/28 10:18:46;;;;;;;1.00;0.30;;;13.10;99.90;;;;;;6182669;23;20036;-78
2022/09/28 10:21:19;;;;;;;1.35;0.30;;;13.10;99.90;;;;;;6182318;23;20005;-78
2022/09/28 10:23:48;;;;;;;3.40;0.40;;;13.40;99.90;;;;;;6182601;23;20009;-77
2022/09/28 10:26:24;;;;;;;1.48;0.35;;;13.40;99.90;;;;;;6181345;23;20379;-78
2022/09/28 10:29:10;;;;;;;1.23;0.30;;;13.40;99.90;;;;;;6180781;23;20016;-77
2022/09/28 10:31:43;;;;;;;1.77;0.38;;;14.10;99.90;;;;;;6182691;23;20032;-78
2022/09/28 10:34:13;;;;;;;3.65;0.30;;;13.30;99.90;;;;;;6182817;23;20005;-78
2022/09/28 10:36:54;;;;;;;0.40;0.30;;;13.50;99.90;;;;;;6182364;23;20001;-77
2022/09/28 10:39:29;;;;;;;0.80;0.43;;;13.30;99.90;;;;;;6182400;23;20020;-77
2022/09/28 10:41:58;;;;;;;0.93;0.47;;;13.30;99.90;;;;;;6181713;23;20005;-77
2022/09/28 10:44:25;;;;;;;0.52;0.30;;;13.40;99.90;;;;;;6182848;23;20067;-77
2022/09/28 10:47:02;;;;;;;0.82;0.30;;;13.50;99.90;;;;;;6182399;23;20080;-77
2022/09/28 10:49:39;;;;;;;1.13;0.30;;;13.60;99.90;;;;;;6182556;23;20045;-77
2022/09/28 10:52:35;;;;;;;0.20;0.20;;;13.60;99.90;;;;;;6182495;23;20072;-77
2022/09/28 10:55:22;;;;;;;1.08;0.22;;;13.70;99.90;;;;;;6181871;23;20004;-76
2022/09/28 10:57:48;;;;;;;1.60;0.30;;;13.70;99.90;;;;;;6182206;23;20005;-78
2022/09/28 11:00:43;;;;;;;0.60;0.20;;;13.70;99.90;;;;;;6181940;23;20052;-78
2022/09/28 11:03:24;;;;;;;4.57;0.40;;;13.10;99.90;;;;;;6181867;23;20304;-76
2022/09/28 11:06:07;;;;;;;0.73;0.30;;;13.70;99.90;;;;;;6181891;23;20011;-77
2022/09/28 11:08:42;;;;;;;1.25;0.20;;;13.70;99.90;;;;;;6182188;23;20005;-77
2022/09/28 11:11:10;;;;;;;0.43;0.20;;;13.70;99.90;;;;;;6181467;23;20579;-77
2022/09/28 11:13:55;;;;;;;1.02;0.20;;;13.80;99.90;;;;;;6182109;23;20378;-77
2022/09/28 11:16:35;;;;;;;2.05;0.20;;;13.80;99.90;;;;;;6182181;23;20145;-77
2022/09/28 11:19:27;;;;;;;2.83;0.30;;;13.90;99.90;;;;;;6181513;23;20001;-77
2022/09/28 11:21:52;;;;;;;0.45;0.20;;;13.90;99.90;;;;;;6167218;23;20009;-77
2022/09/28 11:24:21;;;;;;;0.60;0.28;;;14.40;99.90;;;;;;6181227;23;20260;-79
2022/09/28 11:26:58;;;;;;;0.43;0.25;;;14.00;99.90;;;;;;6182327;23;20004;-78
2022/09/28 11:29:45;;;;;;;0.70;0.28;;;15.90;99.90;;;;;;6181763;23;20017;-78
2022/09/28 11:32:11;;;;;;;1.85;0.28;;;13.80;99.90;;;;;;6179615;23;20012;-78
2022/09/28 11:34:43;;;;;;;0.90;0.20;;;13.70;99.90;;;;;;6181060;23;20001;-77
2022/09/28 11:37:33;;;;;;;0.28;0.20;;;13.70;99.90;;;;;;6180718;23;20001;-77
2022/09/28 11:40:28;;;;;;;0.35;0.17;;;13.70;99.90;;;;;;6181095;23;20446;-76
2022/09/28 11:43:14;;;;;;;0.10;0.10;;;13.90;99.90;;;;;;6181714;23;20005;-77
2022/09/28 11:45:47;;;;;;;4.88;0.20;;;14.30;99.90;;;;;;6181830;23;20064;-79
2022/09/28 11:48:17;;;;;;;0.52;0.20;;;14.10;99.90;;;;;;6179713;23;20407;-77
2022/09/28 11:50:52;;;;;;;1.48;0.20;;;14.30;99.90;;;;;;6181185;23;20005;-84
2022/09/28 11:53:24;;;;;;;0.82;0.30;;;14.50;99.90;;;;;;6181700;23;20370;-77
2022/09/28 11:55:58;;;;;;;2.35;0.40;;;14.40;99.90;;;;;;6181534;23;20005;-78
2022/09/28 11:58:34;;;;;;;0.68;0.25;;;14.60;99.90;;;;;;6181821;23;20001;-79
2022/09/28 12:01:34;;;;;;;0.50;0.13;;;14.60;99.90;;;;;;6181439;23;20001;-76
2022/09/28 12:04:23;;;;;;;1.75;0.20;;;14.80;99.90;;;;;;6166478;23;20006;-76
2022/09/28 12:07:07;;;;;;;0.55;0.20;;;14.90;99.90;;;;;;6154324;23;20060;-77
2022/09/28 12:09:42;;;;;;;0.25;0.10;;;15.60;99.90;;;;;;6181442;23;20092;-77
2022/09/28 12:12:32;;;;;;;1.95;0.50;;;15.30;99.90;;;;;;6181876;23;20001;-77
2022/09/28 12:15:03;;;;;;;0.22;0.20;;;15.50;99.90;;;;;;6181314;23;20001;-75
2022/09/28 12:17:59;;;;;;;0.20;0.17;;;15.60;99.90;;;;;;6181182;23;20001;-74
2022/09/28 12:20:40;;;;;;;0.52;0.20;;;15.70;99.90;;;;;;6171245;23;20005;-74
2022/09/28 12:23:13;;;;;;;0.20;0.10;;;15.60;99.90;;;;;;6180972;23;20423;-75
2022/09/28 12:25:45;;;;;;;2.92;0.40;;;16.50;99.90;;;;;;6181047;23;19997;-75
2022/09/28 12:28:40;;;;;;;0.80;0.20;;;15.40;99.90;;;;;;6181170;23;20015;-75
2022/09/28 12:31:22;;;;;;;0.88;0.20;;;15.30;99.90;;;;;;6181557;23;20399;-74
2022/09/28 12:33:50;;;;;;;0.63;0.28;;;15.20;99.90;;;;;;6181726;23;20001;-75
2022/09/28 12:36:29;;;;;;;0.77;0.22;;;16.10;99.90;;;;;;6181372;23;20335;-75
2022/09/28 12:39:28;;;;;;;1.25;0.20;;;15.10;99.90;;;;;;6181617;23;20029;-76
2022/09/28 12:42:13;;;;;;;2.63;0.20;;;15.20;99.90;;;;;;6181441;23;20005;-75
2022/09/28 12:44:57;;;;;;;0.15;0.10;;;15.30;99.90;;;;;;6181357;23;19998;-75
2022/09/28 12:47:25;;;;;;;1.67;0.20;;;15.40;99.90;;;;;;6181056;23;20001;-77
2022/09/28 12:50:15;;;;;;;0.68;0.20;;;15.50;99.90;;;;;;6178269;23;20108;-77
2022/09/28 12:53:09;;;;;;;0.90;0.20;;;18.10;99.90;;;;;;6178416;23;20052;-77
2022/09/28 12:55:46;;;;;;;0.47;0.20;;;15.90;99.90;;;;;;6180635;23;20008;-77
2022/09/28 12:58:18;;;;;;;0.30;0.13;;;16.00;99.50;;;;;;6180184;23;20403;-76
2022/09/28 13:01:25;;;;;;;0.68;0.17;;;17.20;99.90;;;;;;6178669;23;20012;-77
2022/09/28 13:04:16;;;;;;;1.27;0.38;;;16.10;99.40;;;;;;6183146;23;20012;-76
2022/09/28 13:06:54;;;;;;;0.63;0.28;;;16.30;99.10;;;;;;6182935;23;20032;-77
2022/09/28 13:09:25;;;;;;;0.30;0.30;;;16.30;99.60;;;;;;6183319;23;20001;-76
2022/09/28 13:12:08;;;;;;;0.82;0.30;;;16.20;99.20;;;;;;6183214;23;20025;-77
2022/09/28 13:15:08;;;;;;;0.13;0.10;;;16.20;98.40;;;;;;6182628;23;20029;-78
2022/09/28 13:17:55;;;;;;;0.20;0.10;;;16.00;99.20;;;;;;6182975;23;20028;-77
2022/09/28 13:20:39;;;;;;;1.30;0.20;;;15.80;98.60;;;;;;6182659;23;20078;-77